Latest Weather Observations for Launceston Airport

IDT60801

Issued at 6:05 pm EDT Sunday 23 November 2014 (issued every 30 minutes, with the page automatically refreshed every 10 minutes)

About weather observations | Map of weather stations | Latest weather observations for TAS | Other Formats
Station Details ID: 091311 Name: LAUNCESTON AIRPORT Lat: -41.55 Lon: 147.21 Height: 166.9 m
Data from the previous 72 hours. | See also: Recent months at Launceston Airport
Date/Time
EDT
Temp
°C
App
Temp
°C
Dew
Point
Rel
Hum
%
Delta-T
°C
Wind Press
QNH
hPa
Press
MSL
hPa
Rain
since 9 am
mm
Dir
 
Spd
km/h
Gust
km/h
Spd
kts
Gust
kts
23/06:00pm 19.2 11.9 7.0 45 6.2 NNW 35 44 19 24 1009.5 1009.4 0.2
23/05:30pm 20.0 13.2 7.7 45 6.4 NNW 33 43 18 23 1009.4 1009.3 0.2
23/05:00pm 21.5 14.6 8.7 44 6.8 NNW 35 44 19 24 1009.1 1009.0 0.2
23/04:30pm 21.5 16.1 8.1 42 7.1 NNW 26 35 14 19 1008.4 1008.3 0.2
23/04:00pm 21.8 15.7 6.5 37 7.9 N 28 37 15 20 1008.3 1008.2 0.2
23/03:30pm 22.1 17.0 7.5 39 7.6 NNW 24 32 13 17 1008.4 1008.3 0.2
23/03:00pm 22.2 17.1 7.6 39 7.7 NNW 24 33 13 18 1008.5 1008.4 0.2
23/02:30pm 21.9 16.0 7.3 39 7.6 NNW 28 35 15 19 1008.7 1008.6 0.2
23/02:00pm 22.4 16.6 7.8 39 7.7 NNW 28 35 15 19 1009.0 1008.9 0.2
23/01:30pm 21.9 16.3 7.0 38 7.7 NNW 26 37 14 20 1009.3 1009.2 0.2
23/01:00pm 22.1 16.9 7.1 38 7.8 NNW 24 33 13 18 1009.1 1009.0 0.2
23/12:30pm 21.1 16.0 6.2 38 7.6 NNW 22 30 12 16 1009.2 1009.1 0.2
23/12:00pm 21.1 16.9 8.4 44 6.7 N 20 33 11 18 1009.3 1009.2 0.2
23/11:30am 19.9 15.0 7.0 43 6.6 N 22 32 12 17 1009.4 1009.3 0.2
23/11:00am 19.4 15.3 8.7 50 5.6 N 20 30 11 16 1009.5 1009.4 0.2
23/10:30am 19.2 15.9 8.2 49 5.7 NNW 15 22 8 12 1009.3 1009.2 0.2
23/10:00am 17.9 14.2 9.5 58 4.5 N 19 24 10 13 1009.1 1009.0 0.2
23/09:30am 16.8 14.0 10.0 64 3.6 NNW 15 22 8 12 1009.1 1009.0 0.0
23/09:00am 15.8 13.1 10.3 70 2.9 N 15 20 8 11 1009.1 1009.0 0.4
23/08:30am 15.3 13.1 12.2 82 1.7 N 15 19 8 10 1008.7 1008.6 0.4
23/08:00am 14.7 12.7 12.6 87 1.2 N 15 20 8 11 1008.5 1008.4 0.4
23/07:30am 13.5 11.2 11.7 89 1.0 N 15 19 8 10 1008.0 1007.9 0.4
23/07:00am 12.6 10.8 12.0 96 0.3 NNW 13 17 7 9 1007.5 1007.3 0.4
23/06:52am 12.3 10.8 11.8 97 0.3 NNW 11 15 6 8 1007.4 1007.2 0.4
23/06:35am 11.6 9.5 11.1 97 0.3 NNW 13 19 7 10 1007.1 1006.9 0.4
23/06:30am 11.3 10.2 10.8 97 0.3 N 7 15 4 8 1007.1 1006.9 0.4
23/06:00am 9.7 7.1 9.2 97 0.3 N 13 15 7 8 1006.6 1006.4 0.4
23/05:59am 9.9 7.3 9.4 97 0.3 N 13 15 7 8 1006.6 1006.4 0.4
23/05:54am 10.2 7.7 9.7 97 0.3 N 13 17 7 9 1006.4 1006.2 0.4
23/05:34am 10.5 7.0 10.2 98 0.2 NNW 19 22 10 12 1006.2 1006.0 0.4
23/05:30am 10.4 6.7 10.1 98 0.2 NNW 20 22 11 12 1006.1 1005.9 0.4
23/05:19am 9.9 6.6 9.4 97 0.3 NNW 17 20 9 11 1006.1 1005.9 0.4
23/05:04am 9.4 7.5 8.9 97 0.2 NW 9 13 5 7 1006.1 1005.9 0.4
23/05:00am 9.2 6.8 8.7 97 0.2 NNW 11 13 6 7 1005.9 1005.7 0.4
23/04:30am 9.0 7.0 8.5 97 0.2 N 9 11 5 6 1005.5 1005.4 0.4
23/04:10am 9.3 7.7 8.8 97 0.2 NNW 7 9 4 5 1005.3 1005.2 0.4
23/04:00am 8.7 6.6 8.3 97 0.2 N 9 11 5 6 1005.3 1005.2 0.4
23/03:32am 8.7 5.7 7.9 95 0.4 N 13 15 7 8 1005.3 1005.2 0.4
23/03:30am 9.1 6.3 8.5 96 0.3 N 13 15 7 8 1005.3 1005.2 0.4
23/03:22am 9.8 6.8 9.2 96 0.3 N 15 15 8 8 1005.2 1005.1 0.4
23/03:17am 9.9 6.9 9.3 96 0.3 N 15 15 8 8 1005.1 1005.0 0.4
23/03:00am 10.2 8.8 9.4 95 0.4 NNW 7 9 4 5 1005.1 1005.0 0.4
23/02:57am 9.7 8.1 8.6 93 0.5 NW 7 9 4 5 1005.1 1005.0 0.4
23/02:35am 10.9 8.9 10.3 96 0.3 W 11 15 6 8 1004.9 1004.8 0.4
23/02:30am 10.9 8.9 10.3 96 0.3 W 11 15 6 8 1004.8 1004.7 0.4
23/02:15am 10.0 8.1 9.2 95 0.4 N 9 11 5 6 1004.7 1004.6 0.4
23/02:00am 10.5 8.3 9.4 93 0.6 NE 11 13 6 7 1004.5 1004.4 0.4
23/01:30am 11.8 9.6 9.5 86 1.2 WNW 11 13 6 7 1004.9 1004.8 0.4
23/01:00am 11.8 10.7 9.9 88 1.0 W 6 11 3 6 1005.1 1005.0 0.4
23/12:30am 13.3 10.8 11.2 87 1.1 WSW 15 24 8 13 1005.4 1005.3 0.4
23/12:00am 12.2 10.9 9.9 86 1.2 NE 7 13 4 7 1005.3 1005.2 0.0
 
Date/Time
EDT
Temp
°C
App
Temp
°C
Dew
Point
Rel
Hum
%
Delta-T
°C
Wind Press
QNH
hPa
Press
MSL
hPa
Rain
since 9 am
mm
Dir
 
Spd
km/h
Gust
km/h
Spd
kts
Gust
kts
22/11:30pm 12.6 11.5 10.7 88 1.0 NNW 7 9 4 5 1005.9 1005.7 0.0
22/11:00pm 12.3 10.4 10.4 88 1.0 N 11 15 6 8 1006.4 1006.2 0.0
22/10:30pm 13.5 10.7 10.1 80 1.8 NW 15 20 8 11 1006.3 1006.1 0.0
22/10:00pm 12.6 10.6 10.1 85 1.3 NNW 11 15 6 8 1006.2 1006.0 0.0
22/09:30pm 12.3 10.0 9.0 80 1.7 NW 11 15 6 8 1006.0 1005.8 0.0
22/09:00pm 14.7 12.2 10.9 78 2.0 NW 15 17 8 9 1006.1 1005.9 0.0
22/08:30pm 15.9 14.1 10.9 72 2.7 WNW 11 15 6 8 1006.2 1006.0 0.0
22/08:00pm 15.8 13.2 10.8 72 2.7 NW 15 17 8 9 1006.1 1005.9 0.0
22/07:30pm 16.8 13.9 10.9 68 3.2 NNW 17 20 9 11 1006.3 1006.1 0.0
22/07:00pm 17.5 14.6 10.9 65 3.6 NW 17 22 9 12 1006.4 1006.2 0.0
22/06:30pm 17.6 14.9 11.6 68 3.3 NW 17 22 9 12 1006.4 1006.2 0.0
22/06:00pm 17.8 14.1 10.2 61 4.1 NW 20 24 11 13 1006.3 1006.1 0.0
22/05:30pm 18.6 14.4 9.9 57 4.7 NNW 22 26 12 14 1006.3 1006.1 0.0
22/05:00pm 18.4 14.2 11.0 62 4.1 N 24 32 13 17 1006.7 1006.5 0.0
22/04:30pm 16.2 11.8 10.3 68 3.1 NNW 24 32 13 17 1007.3 1007.1 0.0
22/04:00pm 18.2 12.4 9.3 56 4.7 NNW 30 44 16 24 1007.7 1007.5 0.0
22/03:30pm 19.8 14.6 10.2 54 5.2 N 28 37 15 20 1007.7 1007.5 0.0
22/03:00pm 19.0 12.8 10.0 56 4.9 NNW 33 41 18 22 1007.8 1007.7 0.0
22/02:30pm 18.6 12.2 9.4 55 4.9 NNW 33 48 18 26 1007.9 1007.8 0.0
22/02:00pm 19.6 12.2 10.0 54 5.2 NW 39 56 21 30 1008.8 1008.7 0.0
22/01:30pm 20.3 14.8 10.7 54 5.3 NNW 30 44 16 24 1008.5 1008.4 0.0
22/01:00pm 20.3 14.4 10.4 53 5.4 NNW 32 44 17 24 1008.6 1008.5 0.0
22/12:30pm 19.4 14.5 10.1 55 5.0 NNW 26 39 14 21 1009.2 1009.1 0.0
22/12:00pm 18.2 12.7 7.6 50 5.4 NNW 26 35 14 19 1009.8 1009.7 0.0
22/11:30am 17.8 12.0 8.1 53 5.0 N 28 41 15 22 1010.2 1010.1 0.0
22/11:00am 16.3 11.8 9.9 66 3.4 NNW 24 32 13 17 1010.2 1010.1 0.0
22/10:30am 14.9 9.8 9.3 69 2.9 NNW 26 33 14 18 1010.3 1010.2 0.0
22/10:00am 14.4 9.7 9.2 71 2.7 NNW 24 30 13 16 1010.7 1010.6 0.0
22/09:30am 13.7 8.9 8.7 72 2.5 N 24 28 13 15 1010.7 1010.6 0.0
22/09:00am 12.7 7.8 8.6 76 2.1 NNW 24 33 13 18 1011.0 1010.9 0.0
22/08:30am 13.2 6.9 8.9 75 2.2 NNW 32 41 17 22 1011.4 1011.3 0.0
22/08:00am 12.4 7.1 8.5 77 2.0 NNW 26 35 14 19 1011.3 1011.2 0.0
22/07:30am 11.5 6.6 8.4 81 1.5 NNW 24 33 13 18 1011.1 1011.0 0.0
22/07:00am 10.6 4.7 7.5 81 1.5 NW 28 35 15 19 1010.9 1010.8 0.0
22/06:30am 10.0 5.5 7.1 82 1.4 NNW 20 26 11 14 1010.4 1010.3 0.0
22/06:00am 8.2 3.7 6.3 88 0.9 NNW 19 24 10 13 1009.9 1009.8 0.0
22/05:30am 6.5 2.6 5.3 92 0.5 N 15 17 8 9 1009.7 1009.6 0.0
22/05:00am 5.0 1.5 3.7 91 0.5 N 11 15 6 8 1009.5 1009.4 0.0
22/04:30am 4.3 0.2 2.0 85 0.9 N 13 15 7 8 1009.1 1009.0 0.0
22/04:00am 6.1 2.2 3.4 83 1.1 NNW 13 15 7 8 1009.1 1009.0 0.0
22/03:30am 6.8 3.7 5.7 93 0.5 NNW 11 11 6 6 1009.1 1009.0 0.0
22/03:00am 6.5 2.2 5.1 91 0.6 N 17 17 9 9 1009.3 1009.2 0.0
22/02:30am 6.5 2.5 5.0 90 0.7 N 15 19 8 10 1010.0 1009.9 0.0
22/02:00am 7.0 3.1 5.2 88 0.8 NNW 15 17 8 9 1010.3 1010.2 0.0
22/01:30am 7.9 5.0 6.4 90 0.7 NNW 11 13 6 7 1010.6 1010.5 0.0
22/01:00am 7.3 3.5 5.6 89 0.8 NNW 15 17 8 9 1010.8 1010.7 0.0
22/12:30am 7.9 3.7 5.5 85 1.1 NNW 17 19 9 10 1010.9 1010.8 0.0
22/12:00am 8.3 4.5 5.9 85 1.1 N 15 17 8 9 1011.0 1010.9 0.0
 
Date/Time
EDT
Temp
°C
App
Temp
°C
Dew
Point
Rel
Hum
%
Delta-T
°C
Wind Press
QNH
hPa
Press
MSL
hPa
Rain
since 9 am
mm
Dir
 
Spd
km/h
Gust
km/h
Spd
kts
Gust
kts
21/11:30pm 9.5 5.5 6.8 83 1.3 N 17 19 9 10 1011.0 1010.9 0.0
21/11:00pm 9.9 6.3 6.6 80 1.6 N 15 20 8 11 1011.0 1010.9 0.0
21/10:30pm 10.9 6.4 6.8 76 2.0 N 20 24 11 13 1010.9 1010.8 0.0
21/10:00pm 11.5 6.6 7.0 74 2.2 N 22 28 12 15 1010.8 1010.7 0.0
21/09:30pm 12.1 7.2 6.8 70 2.6 N 22 30 12 16 1010.6 1010.5 0.0
21/09:00pm 12.5 7.9 6.3 66 3.0 N 20 26 11 14 1010.1 1010.0 0.0
21/08:30pm 13.4 8.5 7.0 65 3.1 NNW 22 30 12 16 1009.7 1009.6 0.0
21/08:00pm 14.0 8.7 6.6 61 3.6 NNW 24 35 13 19 1009.2 1009.1 0.0
21/07:30pm 15.5 9.8 6.8 56 4.3 NNW 26 32 14 17 1008.4 1008.3 0.0
21/07:00pm 16.4 10.3 6.8 53 4.8 NNW 28 35 15 19 1007.9 1007.8 0.0
21/06:30pm 17.7 11.2 6.3 47 5.7 NNW 30 37 16 20 1007.3 1007.1 0.0
21/06:00pm 19.3 13.9 4.3 37 7.3 NW 22 35 12 19 1006.8 1006.6 0.0
21/05:30pm 20.4 14.7 2.7 31 8.3 WNW 22 32 12 17 1006.3 1006.1 0.0
21/05:00pm 20.3 14.5 2.2 30 8.5 W 22 32 12 17 1006.0 1005.8 0.0
21/04:30pm 20.4 14.3 2.7 31 8.3 WNW 24 33 13 18 1005.7 1005.5 0.0
21/04:00pm 20.8 14.6 2.1 29 8.8 NW 24 30 13 16 1005.5 1005.4 0.0
21/03:30pm 20.6 15.4 3.3 32 8.3 WNW 20 32 11 17 1005.2 1005.1 0.0
21/03:00pm 19.9 15.7 5.9 40 7.0 NW 17 26 9 14 1005.0 1004.9 0.0
21/02:30pm 19.4 14.6 5.5 40 6.9 NW 20 30 11 16 1005.0 1004.9 0.0
21/02:00pm 19.1 14.3 7.5 47 6.0 NNW 22 32 12 17 1004.9 1004.8 0.0
21/01:30pm 17.9 14.5 7.6 51 5.3 NW 15 20 8 11 1004.8 1004.7 0.0
21/01:00pm 18.6 14.8 7.7 49 5.6 NNW 17 24 9 13 1004.6 1004.5 0.0
21/12:30pm 18.9 14.7 9.7 55 4.9 WNW 22 28 12 15 1004.6 1004.5 0.0
21/12:00pm 18.3 15.1 9.9 58 4.5 NW 17 22 9 12 1004.3 1004.2 0.0
21/11:30am 16.7 12.3 7.6 55 4.6 WNW 20 33 11 18 1004.4 1004.3 0.0
21/11:00am 16.8 12.4 9.0 60 4.1 NW 22 32 12 17 1004.3 1004.2 0.0
21/10:30am 17.1 13.9 9.8 62 3.9 WNW 17 24 9 13 1003.6 1003.5 0.0
21/10:00am 16.8 13.2 10.4 66 3.4 WNW 20 28 11 15 1003.8 1003.7 0.0
21/09:30am 16.8 14.0 12.5 76 2.4 NNW 19 22 10 12 1003.4 1003.3 0.0
21/09:00am 16.0 13.2 12.7 81 1.8 NNW 19 22 10 12 1003.2 1003.1 3.0
21/08:33am 15.3 12.4 12.8 85 1.4 NNW 20 24 11 13 1002.8 1002.7 3.0
21/08:30am 15.3 12.4 12.8 85 1.4 NNW 20 24 11 13 1002.8 1002.7 3.0
21/08:00am 14.5 11.7 12.7 89 1.0 N 19 24 10 13 1002.6 1002.4 3.0
21/07:30am 13.5 10.5 12.1 91 0.8 NNW 19 24 10 13 1002.3 1002.1 3.0
21/07:00am 13.4 10.4 12.5 94 0.5 NNW 20 28 11 15 1002.0 1001.8 3.0
21/06:30am 13.1 9.2 12.2 94 0.5 NNW 24 30 13 16 1001.7 1001.5 3.0
21/06:01am 13.2 9.7 12.1 93 0.6 NNW 22 30 12 16 1001.1 1000.9 3.0
21/06:00am 13.2 9.7 12.1 93 0.6 NNW 22 30 12 16 1001.1 1000.9 3.0
21/05:33am 13.0 9.9 12.1 94 0.5 NNW 20 28 11 15 1000.9 1000.7 3.0
21/05:30am 13.0 9.5 12.1 94 0.5 NNW 22 28 12 15 1001.1 1000.9 3.0
21/05:00am 13.2 9.0 12.3 94 0.5 NNW 26 32 14 17 1000.7 1000.5 3.0
21/04:46am 13.3 9.5 12.4 94 0.5 NNW 24 32 13 17 1001.0 1000.8 3.0
21/04:30am 13.4 9.9 12.3 93 0.6 NNW 22 28 12 15 1000.6 1000.4 2.8
21/04:00am 13.7 10.3 12.6 93 0.6 N 22 28 12 15 1000.4 1000.2 2.8
21/03:33am 13.7 10.8 12.8 94 0.5 N 20 30 11 16 1000.5 1000.3 2.8
21/03:30am 13.6 10.6 12.7 94 0.5 N 20 26 11 14 1000.5 1000.3 2.8
21/03:00am 14.0 10.8 13.1 94 0.5 N 22 32 12 17 1000.6 1000.4 2.8
21/02:30am 14.3 11.6 13.5 95 0.4 N 20 28 11 15 1000.9 1000.7 2.8
21/02:00am 14.4 11.0 13.6 95 0.5 N 24 30 13 16 1001.3 1001.1 2.8
21/01:30am 14.4 11.7 13.6 95 0.4 N 20 28 11 15 1001.5 1001.3 2.8
21/01:00am 14.5 11.4 13.5 94 0.6 N 22 30 12 16 1001.8 1001.6 2.8
21/12:30am 14.5 11.1 13.7 95 0.5 NNW 24 35 13 19 1002.0 1001.8 2.8
21/12:00am 14.6 10.9 13.8 95 0.5 NNW 26 35 14 19 1002.1 1001.9 2.8
 
Date/Time
EDT
Temp
°C
App
Temp
°C
Dew
Point
Rel
Hum
%
Delta-T
°C
Wind Press
QNH
hPa
Press
MSL
hPa
Rain
since 9 am
mm
Dir
 
Spd
km/h
Gust
km/h
Spd
kts
Gust
kts
20/11:30pm 14.3 10.4 13.3 94 0.6 N 26 32 14 17 1002.1 1001.9 2.8
20/11:00pm 14.2 9.9 13.2 94 0.6 N 28 35 15 19 1002.4 1002.2 2.8
20/10:30pm 14.1 10.3 13.5 96 0.3 N 26 35 14 19 1002.8 1002.7 2.8
20/10:06pm 14.0 10.5 13.4 96 0.3 N 24 32 13 17 1003.1 1003.0 2.2
20/10:00pm 14.0 10.5 13.4 96 0.3 N 24 35 13 19 1003.2 1003.1 2.2
20/09:53pm 14.0 10.4 13.2 95 0.4 N 24 35 13 19 1003.4 1003.3 2.2
20/09:30pm 13.8 9.4 13.0 95 0.4 N 28 37 15 20 1003.6 1003.5 1.8
20/09:00pm 13.6 9.5 12.7 94 0.5 N 26 33 14 18 1003.6 1003.5 1.8
20/08:30pm 13.6 9.5 12.7 94 0.5 NNW 26 39 14 21 1003.3 1003.2 1.8
20/08:00pm 13.7 10.4 12.9 95 0.4 N 22 32 12 17 1003.6 1003.5 1.8
20/07:30pm 13.7 10.8 12.9 95 0.4 N 20 32 11 17 1003.9 1003.8 1.4
20/07:00pm 13.9 9.5 13.0 94 0.5 N 28 35 15 19 1003.6 1003.5 1.2
20/06:36pm 14.1 10.0 12.8 92 0.7 N 26 33 14 18 1003.8 1003.7 0.6
20/06:30pm 14.2 9.8 12.8 91 0.8 N 28 35 15 19 1003.9 1003.8 0.4
20/06:07pm 14.5 8.9 12.0 85 1.4 NNW 33 52 18 28 1004.2 1004.1 0.0

Other Formats:

Comma delimited format used in spreadsheet applications
http://www.bom.gov.au/fwo/IDT60801/IDT60801.95966.axf

JavaScript Object Notation format (JSON) in row-major order
http://www.bom.gov.au/fwo/IDT60801/IDT60801.95966.json